Terminal Aerodrome Forecast
Issued by NWS Albany, NY

Home | Current Version | Previous Version | Text Only | Print | Product List | Glossary On
Versions: 1 2 3 4 5 6 7 8 9 10 11 12 13 14 15 16 17 18 19 20
000
FTUS41 KALY 191135
TAFGFL
TAF
KGFL 191135Z 1912/2012 04006KT P6SM SKC
     FM191800 08007KT P6SM SCT250
     FM200400 08003KT P6SM SCT150 BKN200
     FM200900 08008KT P6SM VCSH BKN080 OVC100=

USA.gov is the U.S. government's official web portal to all federal, state and local government web resources and services.